KDUJ/DUJ METAR and TAF weather

Enter ICAO airport designator
Station Type Date Time Source
KDUJ METAR 2020/11/27 14:11 UTC NOAA

KDUJ 271411Z AUTO 23003KT 9SM SCT005 BKN009 OVC026 07/05 A3008 RMK AO2 T00670050


Station Type Date Time Source
KDUJ Decoded METAR 2020/11/27 14:11 UTC NOAA

DU BOIS-JEFFERSON COUNTY, PA, United States (KDUJ) 41-11N 078-53W
Nov 27, 2020 - 09:11 AM EST / 2020.11.27 1411 UTC
Wind: from the SW (230 degrees) at 3 MPH (3 KT):0
Visibility: 9 mile(s):0
Sky conditions: overcast
Temperature: 44.1 F (6.7 C)
Dew Point: 41.0 F (5.0 C)
Relative Humidity: 88%
Pressure (altimeter): 30.08 in. Hg (1018 hPa)
ob: KDUJ 271411Z AUTO 23003KT 9SM SCT005 BKN009 OVC026 07/05 A3008 RMK AO2 T00670050
cycle: 14

Station Type Date Time Source
KDUJ TAF 2020/11/27 15:48 UTC NOAA

TAF
AMD KDUJ 271447Z 2715/2812 26007KT P6SM OVC015
TEMPO 2715/2717 6SM -DZ BR OVC008
FM271700 25005KT P6SM BKN018
FM272100 25007KT P6SM BKN025
FM280200 27005KT P6SM BKN015

Example: see airport list